sensor_id;sensor_type;location;lat;lon;timestamp;P1;durP1;ratioP1;P2;durP2;ratioP2
3379;SDS011;1703;51.964;7.642;2023-03-01T00:01:53;7.77;;;5.87;;
3379;SDS011;1703;51.964;7.642;2023-03-01T00:04:20;11.30;;;7.10;;
3379;SDS011;1703;51.964;7.642;2023-03-01T00:06:47;11.63;;;6.93;;
3379;SDS011;1703;51.964;7.642;2023-03-01T00:09:14;10.43;;;5.80;;
3379;SDS011;1703;51.964;7.642;2023-03-01T00:11:41;6.67;;;5.83;;
3379;SDS011;1703;51.964;7.642;2023-03-01T00:14:09;6.10;;;5.30;;
3379;SDS011;1703;51.964;7.642;2023-03-01T00:16:37;9.27;;;6.30;;
3379;SDS011;1703;51.964;7.642;2023-03-01T00:19:07;13.37;;;6.03;;
3379;SDS011;1703;51.964;7.642;2023-03-01T00:21:35;18.57;;;6.43;;
3379;SDS011;1703;51.964;7.642;2023-03-01T00:24:02;10.40;;;6.03;;
3379;SDS011;1703;51.964;7.642;2023-03-01T00:26:30;7.43;;;5.87;;
3379;SDS011;1703;51.964;7.642;2023-03-01T00:28:57;6.77;;;5.37;;
3379;SDS011;1703;51.964;7.642;2023-03-01T00:31:25;10.73;;;5.93;;
3379;SDS011;1703;51.964;7.642;2023-03-01T00:33:53;8.33;;;5.37;;
3379;SDS011;1703;51.964;7.642;2023-03-01T00:36:23;9.17;;;6.07;;
3379;SDS011;1703;51.964;7.642;2023-03-01T00:38:51;10.20;;;5.20;;
3379;SDS011;1703;51.964;7.642;2023-03-01T00:41:18;6.90;;;5.20;;
3379;SDS011;1703;51.964;7.642;2023-03-01T00:43:47;10.23;;;5.50;;
3379;SDS011;1703;51.964;7.642;2023-03-01T00:46:15;11.83;;;6.50;;
3379;SDS011;1703;51.964;7.642;2023-03-01T00:48:44;7.60;;;5.40;;
3379;SDS011;1703;51.964;7.642;2023-03-01T00:51:11;9.13;;;5.80;;
3379;SDS011;1703;51.964;7.642;2023-03-01T00:53:40;7.70;;;5.20;;
3379;SDS011;1703;51.964;7.642;2023-03-01T00:56:08;10.43;;;6.27;;
3379;SDS011;1703;51.964;7.642;2023-03-01T00:58:37;10.67;;;6.27;;
3379;SDS011;1703;51.964;7.642;2023-03-01T01:01:07;6.43;;;5.60;;
3379;SDS011;1703;51.964;7.642;2023-03-01T01:03:42;6.50;;;5.90;;
3379;SDS011;1703;51.964;7.642;2023-03-01T01:06:12;6.50;;;4.77;;
3379;SDS011;1703;51.964;7.642;2023-03-01T01:08:41;10.90;;;5.60;;
3379;SDS011;1703;51.964;7.642;2023-03-01T01:11:08;8.93;;;6.00;;
3379;SDS011;1703;51.964;7.642;2023-03-01T01:13:36;10.03;;;5.53;;
3379;SDS011;1703;51.964;7.642;2023-03-01T01:16:03;8.70;;;5.87;;
3379;SDS011;1703;51.964;7.642;2023-03-01T01:18:31;8.93;;;6.40;;
3379;SDS011;1703;51.964;7.642;2023-03-01T01:20:57;12.82;;;7.55;;
3379;SDS011;1703;51.964;7.642;2023-03-01T01:23:30;11.10;;;7.00;;
3379;SDS011;1703;51.964;7.642;2023-03-01T01:25:58;8.70;;;6.00;;
3379;SDS011;1703;51.964;7.642;2023-03-01T01:28:30;10.87;;;6.77;;
3379;SDS011;1703;51.964;7.642;2023-03-01T01:30:57;13.33;;;6.43;;
3379;SDS011;1703;51.964;7.642;2023-03-01T01:33:24;8.83;;;5.73;;
3379;SDS011;1703;51.964;7.642;2023-03-01T01:35:51;6.13;;;5.60;;
3379;SDS011;1703;51.964;7.642;2023-03-01T01:38:18;7.53;;;5.63;;
3379;SDS011;1703;51.964;7.642;2023-03-01T01:40:46;6.57;;;5.80;;
3379;SDS011;1703;51.964;7.642;2023-03-01T01:43:18;7.60;;;6.10;;
3379;SDS011;1703;51.964;7.642;2023-03-01T01:45:47;8.93;;;6.00;;
3379;SDS011;1703;51.964;7.642;2023-03-01T01:48:14;8.70;;;7.00;;
3379;SDS011;1703;51.964;7.642;2023-03-01T01:50:45;11.23;;;6.20;;
3379;SDS011;1703;51.964;7.642;2023-03-01T01:53:18;12.50;;;6.13;;
3379;SDS011;1703;51.964;7.642;2023-03-01T01:55:47;8.33;;;5.77;;
3379;SDS011;1703;51.964;7.642;2023-03-01T01:58:19;7.23;;;6.20;;
3379;SDS011;1703;51.964;7.642;2023-03-01T02:00:47;9.80;;;6.20;;
3379;SDS011;1703;51.964;7.642;2023-03-01T02:03:15;13.67;;;5.77;;
3379;SDS011;1703;51.964;7.642;2023-03-01T02:05:46;6.57;;;5.47;;
3379;SDS011;1703;51.964;7.642;2023-03-01T02:08:18;9.07;;;5.77;;
3379;SDS011;1703;51.964;7.642;2023-03-01T02:10:46;7.70;;;6.17;;
3379;SDS011;1703;51.964;7.642;2023-03-01T02:13:15;8.20;;;6.00;;
3379;SDS011;1703;51.964;7.642;2023-03-01T02:15:43;11.57;;;6.90;;
3379;SDS011;1703;51.964;7.642;2023-03-01T02:18:11;9.07;;;6.70;;
3379;SDS011;1703;51.964;7.642;2023-03-01T02:20:44;9.77;;;6.10;;
3379;SDS011;1703;51.964;7.642;2023-03-01T02:23:21;7.47;;;5.80;;
3379;SDS011;1703;51.964;7.642;2023-03-01T02:25:51;7.50;;;5.80;;
3379;SDS011;1703;51.964;7.642;2023-03-01T02:31:10;8.30;;;5.93;;
3379;SDS011;1703;51.964;7.642;2023-03-01T02:33:57;10.80;;;6.33;;
3379;SDS011;1703;51.964;7.642;2023-03-01T02:36:28;13.27;;;7.03;;
3379;SDS011;1703;51.964;7.642;2023-03-01T02:38:58;7.57;;;6.00;;
3379;SDS011;1703;51.964;7.642;2023-03-01T02:41:28;8.03;;;6.20;;
3379;SDS011;1703;51.964;7.642;2023-03-01T02:43:59;8.33;;;5.77;;
3379;SDS011;1703;51.964;7.642;2023-03-01T02:46:26;7.63;;;5.90;;
3379;SDS011;1703;51.964;7.642;2023-03-01T02:48:53;6.77;;;5.57;;
3379;SDS011;1703;51.964;7.642;2023-03-01T02:51:25;8.40;;;6.07;;
3379;SDS011;1703;51.964;7.642;2023-03-01T02:54:07;7.30;;;6.20;;
3379;SDS011;1703;51.964;7.642;2023-03-01T02:56:42;7.17;;;5.40;;
3379;SDS011;1703;51.964;7.642;2023-03-01T02:59:15;7.10;;;6.00;;
3379;SDS011;1703;51.964;7.642;2023-03-01T03:01:44;7.90;;;6.00;;
3379;SDS011;1703;51.964;7.642;2023-03-01T03:04:13;9.17;;;5.30;;
3379;SDS011;1703;51.964;7.642;2023-03-01T03:06:43;5.97;;;5.40;;
3379;SDS011;1703;51.964;7.642;2023-03-01T03:09:10;8.17;;;5.70;;
3379;SDS011;1703;51.964;7.642;2023-03-01T03:11:37;8.53;;;5.53;;
3379;SDS011;1703;51.964;7.642;2023-03-01T03:14:06;8.80;;;5.93;;
3379;SDS011;1703;51.964;7.642;2023-03-01T03:16:40;11.90;;;7.50;;
3379;SDS011;1703;51.964;7.642;2023-03-01T03:19:07;9.30;;;5.40;;
3379;SDS011;1703;51.964;7.642;2023-03-01T03:21:34;8.10;;;5.63;;
3379;SDS011;1703;51.964;7.642;2023-03-01T03:24:01;8.87;;;6.77;;
3379;SDS011;1703;51.964;7.642;2023-03-01T03:26:28;11.10;;;6.70;;
3379;SDS011;1703;51.964;7.642;2023-03-01T03:28:55;10.93;;;6.20;;
3379;SDS011;1703;51.964;7.642;2023-03-01T03:31:22;7.07;;;5.60;;
3379;SDS011;1703;51.964;7.642;2023-03-01T03:33:50;10.10;;;7.03;;
3379;SDS011;1703;51.964;7.642;2023-03-01T03:36:18;9.50;;;6.07;;
3379;SDS011;1703;51.964;7.642;2023-03-01T03:38:47;9.80;;;6.07;;
3379;SDS011;1703;51.964;7.642;2023-03-01T03:41:14;7.47;;;5.30;;
3379;SDS011;1703;51.964;7.642;2023-03-01T03:43:41;9.90;;;6.37;;
3379;SDS011;1703;51.964;7.642;2023-03-01T03:46:09;7.20;;;6.47;;
3379;SDS011;1703;51.964;7.642;2023-03-01T03:48:37;7.63;;;6.50;;
3379;SDS011;1703;51.964;7.642;2023-03-01T03:51:07;10.93;;;6.10;;
3379;SDS011;1703;51.964;7.642;2023-03-01T03:53:36;7.33;;;5.10;;
3379;SDS011;1703;51.964;7.642;2023-03-01T03:56:04;9.03;;;5.60;;
3379;SDS011;1703;51.964;7.642;2023-03-01T03:58:31;9.47;;;6.17;;
3379;SDS011;1703;51.964;7.642;2023-03-01T04:00:58;7.73;;;6.00;;
3379;SDS011;1703;51.964;7.642;2023-03-01T04:03:26;13.00;;;7.40;;
3379;SDS011;1703;51.964;7.642;2023-03-01T04:05:56;8.90;;;6.10;;
3379;SDS011;1703;51.964;7.642;2023-03-01T04:08:25;16.03;;;6.83;;
3379;SDS011;1703;51.964;7.642;2023-03-01T04:10:56;11.27;;;6.57;;
3379;SDS011;1703;51.964;7.642;2023-03-01T04:13:24;10.23;;;5.20;;
3379;SDS011;1703;51.964;7.642;2023-03-01T04:15:52;15.70;;;6.97;;
3379;SDS011;1703;51.964;7.642;2023-03-01T04:18:20;7.83;;;6.23;;
3379;SDS011;1703;51.964;7.642;2023-03-01T04:20:48;12.00;;;7.93;;
3379;SDS011;1703;51.964;7.642;2023-03-01T04:23:17;10.07;;;6.70;;
3379;SDS011;1703;51.964;7.642;2023-03-01T04:25:47;12.37;;;6.90;;
3379;SDS011;1703;51.964;7.642;2023-03-01T04:28:18;7.20;;;5.93;;
3379;SDS011;1703;51.964;7.642;2023-03-01T04:30:45;8.23;;;6.37;;
3379;SDS011;1703;51.964;7.642;2023-03-01T04:33:12;8.17;;;6.30;;
3379;SDS011;1703;51.964;7.642;2023-03-01T04:35:39;6.07;;;5.43;;
3379;SDS011;1703;51.964;7.642;2023-03-01T04:38:06;10.50;;;7.40;;
3379;SDS011;1703;51.964;7.642;2023-03-01T04:40:33;9.07;;;6.77;;
3379;SDS011;1703;51.964;7.642;2023-03-01T04:43:01;8.67;;;6.30;;
3379;SDS011;1703;51.964;7.642;2023-03-01T04:45:29;7.70;;;6.40;;
3379;SDS011;1703;51.964;7.642;2023-03-01T04:47:59;9.10;;;6.00;;
3379;SDS011;1703;51.964;7.642;2023-03-01T04:50:26;12.30;;;7.73;;
3379;SDS011;1703;51.964;7.642;2023-03-01T04:52:53;7.40;;;6.23;;
3379;SDS011;1703;51.964;7.642;2023-03-01T04:55:23;13.03;;;6.60;;
3379;SDS011;1703;51.964;7.642;2023-03-01T04:57:51;10.70;;;6.47;;
3379;SDS011;1703;51.964;7.642;2023-03-01T05:00:20;8.10;;;6.00;;
3379;SDS011;1703;51.964;7.642;2023-03-01T05:02:48;10.73;;;6.13;;
3379;SDS011;1703;51.964;7.642;2023-03-01T05:05:21;7.60;;;6.80;;
3379;SDS011;1703;51.964;7.642;2023-03-01T05:07:51;7.57;;;6.00;;
3379;SDS011;1703;51.964;7.642;2023-03-01T05:10:22;13.67;;;6.23;;
3379;SDS011;1703;51.964;7.642;2023-03-01T05:12:49;12.47;;;7.13;;
3379;SDS011;1703;51.964;7.642;2023-03-01T05:15:17;8.90;;;6.00;;
3379;SDS011;1703;51.964;7.642;2023-03-01T05:17:45;10.93;;;7.37;;
3379;SDS011;1703;51.964;7.642;2023-03-01T05:20:12;11.43;;;7.00;;
3379;SDS011;1703;51.964;7.642;2023-03-01T05:22:39;18.60;;;6.73;;
3379;SDS011;1703;51.964;7.642;2023-03-01T05:25:06;9.77;;;5.73;;
3379;SDS011;1703;51.964;7.642;2023-03-01T05:27:33;10.07;;;7.40;;
3379;SDS011;1703;51.964;7.642;2023-03-01T05:30:00;7.50;;;6.40;;
3379;SDS011;1703;51.964;7.642;2023-03-01T05:32:38;10.80;;;6.17;;
3379;SDS011;1703;51.964;7.642;2023-03-01T05:35:09;8.10;;;5.97;;
3379;SDS011;1703;51.964;7.642;2023-03-01T05:37:39;11.83;;;6.20;;
3379;SDS011;1703;51.964;7.642;2023-03-01T05:40:08;9.90;;;7.00;;
3379;SDS011;1703;51.964;7.642;2023-03-01T05:42:41;8.00;;;6.50;;
3379;SDS011;1703;51.964;7.642;2023-03-01T05:45:11;13.20;;;6.87;;
3379;SDS011;1703;51.964;7.642;2023-03-01T05:47:39;13.00;;;7.80;;
3379;SDS011;1703;51.964;7.642;2023-03-01T05:50:10;8.33;;;5.87;;
3379;SDS011;1703;51.964;7.642;2023-03-01T05:52:39;11.30;;;6.47;;
3379;SDS011;1703;51.964;7.642;2023-03-01T05:55:06;13.17;;;7.87;;
3379;SDS011;1703;51.964;7.642;2023-03-01T05:57:33;11.10;;;6.23;;
3379;SDS011;1703;51.964;7.642;2023-03-01T06:00:00;13.60;;;6.87;;
3379;SDS011;1703;51.964;7.642;2023-03-01T06:02:37;10.63;;;7.83;;
3379;SDS011;1703;51.964;7.642;2023-03-01T06:05:05;12.63;;;7.50;;
3379;SDS011;1703;51.964;7.642;2023-03-01T06:07:35;15.10;;;8.20;;
3379;SDS011;1703;51.964;7.642;2023-03-01T06:10:02;8.90;;;6.83;;
3379;SDS011;1703;51.964;7.642;2023-03-01T06:12:30;15.83;;;6.93;;
3379;SDS011;1703;51.964;7.642;2023-03-01T06:14:58;13.50;;;7.53;;
3379;SDS011;1703;51.964;7.642;2023-03-01T06:17:24;12.57;;;8.50;;
3379;SDS011;1703;51.964;7.642;2023-03-01T06:19:51;12.80;;;7.80;;
3379;SDS011;1703;51.964;7.642;2023-03-01T06:22:18;11.40;;;7.63;;
3379;SDS011;1703;51.964;7.642;2023-03-01T06:24:46;9.67;;;6.70;;
3379;SDS011;1703;51.964;7.642;2023-03-01T06:27:13;15.13;;;7.23;;
3379;SDS011;1703;51.964;7.642;2023-03-01T06:29:40;9.53;;;7.30;;
3379;SDS011;1703;51.964;7.642;2023-03-01T06:32:07;12.47;;;7.20;;
3379;SDS011;1703;51.964;7.642;2023-03-01T06:34:34;10.97;;;6.90;;
3379;SDS011;1703;51.964;7.642;2023-03-01T06:37:00;12.20;;;6.73;;
3379;SDS011;1703;51.964;7.642;2023-03-01T06:39:30;10.70;;;6.93;;
3379;SDS011;1703;51.964;7.642;2023-03-01T06:41:58;12.10;;;7.20;;
3379;SDS011;1703;51.964;7.642;2023-03-01T06:44:25;11.03;;;6.93;;
3379;SDS011;1703;51.964;7.642;2023-03-01T06:46:52;12.50;;;6.83;;
3379;SDS011;1703;51.964;7.642;2023-03-01T06:49:20;12.53;;;8.00;;
3379;SDS011;1703;51.964;7.642;2023-03-01T06:51:46;11.03;;;7.80;;
3379;SDS011;1703;51.964;7.642;2023-03-01T06:54:13;10.17;;;8.27;;
3379;SDS011;1703;51.964;7.642;2023-03-01T06:56:40;9.93;;;6.63;;
3379;SDS011;1703;51.964;7.642;2023-03-01T06:59:08;12.30;;;7.73;;
3379;SDS011;1703;51.964;7.642;2023-03-01T07:01:35;15.00;;;8.03;;
3379;SDS011;1703;51.964;7.642;2023-03-01T07:04:02;14.67;;;8.50;;
3379;SDS011;1703;51.964;7.642;2023-03-01T07:06:29;10.40;;;8.17;;
3379;SDS011;1703;51.964;7.642;2023-03-01T07:08:56;18.60;;;7.40;;
3379;SDS011;1703;51.964;7.642;2023-03-01T07:11:22;14.93;;;7.67;;
3379;SDS011;1703;51.964;7.642;2023-03-01T07:13:49;17.90;;;8.13;;
3379;SDS011;1703;51.964;7.642;2023-03-01T07:16:17;12.23;;;7.13;;
3379;SDS011;1703;51.964;7.642;2023-03-01T07:18:45;14.00;;;7.53;;
3379;SDS011;1703;51.964;7.642;2023-03-01T07:21:13;9.70;;;6.90;;
3379;SDS011;1703;51.964;7.642;2023-03-01T07:23:41;15.30;;;7.43;;
3379;SDS011;1703;51.964;7.642;2023-03-01T07:26:08;15.00;;;7.67;;
3379;SDS011;1703;51.964;7.642;2023-03-01T07:28:35;10.13;;;7.17;;
3379;SDS011;1703;51.964;7.642;2023-03-01T07:31:04;12.40;;;7.00;;
3379;SDS011;1703;51.964;7.642;2023-03-01T07:33:33;12.03;;;7.10;;
3379;SDS011;1703;51.964;7.642;2023-03-01T07:36:00;9.37;;;6.73;;
3379;SDS011;1703;51.964;7.642;2023-03-01T07:38:29;10.80;;;7.23;;
3379;SDS011;1703;51.964;7.642;2023-03-01T07:40:59;9.63;;;7.00;;
3379;SDS011;1703;51.964;7.642;2023-03-01T07:43:27;9.27;;;7.30;;
3379;SDS011;1703;51.964;7.642;2023-03-01T07:45:54;11.13;;;6.87;;
3379;SDS011;1703;51.964;7.642;2023-03-01T07:48:20;12.90;;;6.00;;
3379;SDS011;1703;51.964;7.642;2023-03-01T07:50:48;9.27;;;7.73;;
3379;SDS011;1703;51.964;7.642;2023-03-01T07:53:15;10.57;;;7.00;;
3379;SDS011;1703;51.964;7.642;2023-03-01T07:55:42;9.27;;;7.63;;
3379;SDS011;1703;51.964;7.642;2023-03-01T07:58:09;11.03;;;7.63;;
3379;SDS011;1703;51.964;7.642;2023-03-01T08:07:56;10.53;;;5.97;;
3379;SDS011;1703;51.964;7.642;2023-03-01T08:10:23;10.80;;;6.53;;
3379;SDS011;1703;51.964;7.642;2023-03-01T08:20:52;9.83;;;6.57;;
3379;SDS011;1703;51.964;7.642;2023-03-01T08:24:30;11.17;;;6.50;;
3379;SDS011;1703;51.964;7.642;2023-03-01T08:27:08;11.57;;;6.23;;
3379;SDS011;1703;51.964;7.642;2023-03-01T08:29:37;11.70;;;6.23;;
3379;SDS011;1703;51.964;7.642;2023-03-01T08:32:04;23.23;;;7.20;;
3379;SDS011;1703;51.964;7.642;2023-03-01T08:34:30;9.30;;;5.73;;
3379;SDS011;1703;51.964;7.642;2023-03-01T08:37:00;6.27;;;5.10;;
3379;SDS011;1703;51.964;7.642;2023-03-01T08:39:28;15.23;;;6.27;;
3379;SDS011;1703;51.964;7.642;2023-03-01T08:41:56;8.80;;;6.07;;
3379;SDS011;1703;51.964;7.642;2023-03-01T08:44:23;7.33;;;6.00;;
3379;SDS011;1703;51.964;7.642;2023-03-01T08:46:50;12.73;;;6.87;;
3379;SDS011;1703;51.964;7.642;2023-03-01T08:49:18;9.60;;;5.60;;
3379;SDS011;1703;51.964;7.642;2023-03-01T08:51:46;9.10;;;6.10;;
3379;SDS011;1703;51.964;7.642;2023-03-01T08:54:14;11.83;;;7.00;;
3379;SDS011;1703;51.964;7.642;2023-03-01T08:56:44;12.70;;;6.93;;
3379;SDS011;1703;51.964;7.642;2023-03-01T08:59:12;11.17;;;7.37;;
3379;SDS011;1703;51.964;7.642;2023-03-01T09:01:40;9.13;;;5.90;;
3379;SDS011;1703;51.964;7.642;2023-03-01T09:04:08;13.30;;;7.60;;
3379;SDS011;1703;51.964;7.642;2023-03-01T09:06:35;17.20;;;6.50;;
3379;SDS011;1703;51.964;7.642;2023-03-01T09:09:03;13.13;;;6.70;;
3379;SDS011;1703;51.964;7.642;2023-03-01T09:11:31;11.73;;;6.30;;
3379;SDS011;1703;51.964;7.642;2023-03-01T09:13:59;7.37;;;6.30;;
3379;SDS011;1703;51.964;7.642;2023-03-01T09:16:26;8.70;;;6.00;;
3379;SDS011;1703;51.964;7.642;2023-03-01T09:18:54;10.00;;;6.47;;
3379;SDS011;1703;51.964;7.642;2023-03-01T09:21:22;15.17;;;6.23;;
3379;SDS011;1703;51.964;7.642;2023-03-01T09:23:52;7.33;;;5.67;;
3379;SDS011;1703;51.964;7.642;2023-03-01T09:26:20;10.53;;;7.07;;
3379;SDS011;1703;51.964;7.642;2023-03-01T09:28:48;12.17;;;6.70;;
3379;SDS011;1703;51.964;7.642;2023-03-01T09:31:25;14.00;;;7.07;;
3379;SDS011;1703;51.964;7.642;2023-03-01T09:33:54;8.83;;;5.40;;
3379;SDS011;1703;51.964;7.642;2023-03-01T09:36:22;12.10;;;5.80;;
3379;SDS011;1703;51.964;7.642;2023-03-01T09:38:51;9.60;;;6.17;;
3379;SDS011;1703;51.964;7.642;2023-03-01T09:41:22;6.40;;;5.10;;
3379;SDS011;1703;51.964;7.642;2023-03-01T09:44:02;9.37;;;5.90;;
3379;SDS011;1703;51.964;7.642;2023-03-01T09:46:40;13.30;;;6.47;;
3379;SDS011;1703;51.964;7.642;2023-03-01T09:49:10;9.67;;;6.63;;
3379;SDS011;1703;51.964;7.642;2023-03-01T09:51:42;21.50;;;6.13;;
3379;SDS011;1703;51.964;7.642;2023-03-01T09:54:19;6.83;;;6.10;;
3379;SDS011;1703;51.964;7.642;2023-03-01T09:56:49;15.50;;;7.17;;
3379;SDS011;1703;51.964;7.642;2023-03-01T09:59:26;7.63;;;5.33;;
3379;SDS011;1703;51.964;7.642;2023-03-01T10:02:01;9.63;;;6.40;;
3379;SDS011;1703;51.964;7.642;2023-03-01T10:04:40;10.70;;;6.10;;
3379;SDS011;1703;51.964;7.642;2023-03-01T10:07:17;10.73;;;6.87;;
3379;SDS011;1703;51.964;7.642;2023-03-01T10:09:51;8.83;;;6.10;;
3379;SDS011;1703;51.964;7.642;2023-03-01T10:12:19;11.37;;;6.50;;
3379;SDS011;1703;51.964;7.642;2023-03-01T10:14:51;15.20;;;7.00;;
3379;SDS011;1703;51.964;7.642;2023-03-01T10:17:26;9.40;;;6.27;;
3379;SDS011;1703;51.964;7.642;2023-03-01T10:19:59;10.30;;;5.77;;
3379;SDS011;1703;51.964;7.642;2023-03-01T10:22:41;12.40;;;7.30;;
3379;SDS011;1703;51.964;7.642;2023-03-01T10:25:12;8.67;;;5.70;;
3379;SDS011;1703;51.964;7.642;2023-03-01T10:27:42;13.17;;;7.10;;
3379;SDS011;1703;51.964;7.642;2023-03-01T10:30:16;12.83;;;7.23;;
3379;SDS011;1703;51.964;7.642;2023-03-01T10:32:48;14.77;;;7.20;;
3379;SDS011;1703;51.964;7.642;2023-03-01T10:35:18;11.40;;;7.70;;
3379;SDS011;1703;51.964;7.642;2023-03-01T10:37:56;12.87;;;6.70;;
3379;SDS011;1703;51.964;7.642;2023-03-01T10:40:24;9.53;;;6.67;;
3379;SDS011;1703;51.964;7.642;2023-03-01T10:42:50;11.80;;;6.80;;
3379;SDS011;1703;51.964;7.642;2023-03-01T10:45:26;8.50;;;5.80;;
3379;SDS011;1703;51.964;7.642;2023-03-01T10:48:08;12.93;;;7.33;;
3379;SDS011;1703;51.964;7.642;2023-03-01T10:50:39;8.67;;;6.40;;
3379;SDS011;1703;51.964;7.642;2023-03-01T10:53:16;11.90;;;6.97;;
3379;SDS011;1703;51.964;7.642;2023-03-01T10:55:56;11.03;;;6.30;;
3379;SDS011;1703;51.964;7.642;2023-03-01T10:58:25;11.80;;;5.90;;
3379;SDS011;1703;51.964;7.642;2023-03-01T11:00:52;13.10;;;7.40;;
3379;SDS011;1703;51.964;7.642;2023-03-01T11:03:23;12.70;;;7.00;;
3379;SDS011;1703;51.964;7.642;2023-03-01T11:05:55;12.03;;;7.67;;
3379;SDS011;1703;51.964;7.642;2023-03-01T11:08:31;8.13;;;6.67;;
3379;SDS011;1703;51.964;7.642;2023-03-01T11:11:07;11.50;;;7.13;;
3379;SDS011;1703;51.964;7.642;2023-03-01T11:13:51;14.60;;;6.87;;
3379;SDS011;1703;51.964;7.642;2023-03-01T11:16:24;13.27;;;7.00;;
3379;SDS011;1703;51.964;7.642;2023-03-01T11:18:58;8.50;;;6.70;;
3379;SDS011;1703;51.964;7.642;2023-03-01T11:21:28;12.30;;;7.97;;
3379;SDS011;1703;51.964;7.642;2023-03-01T11:23:58;11.60;;;8.53;;
3379;SDS011;1703;51.964;7.642;2023-03-01T11:26:27;8.13;;;6.17;;
3379;SDS011;1703;51.964;7.642;2023-03-01T11:28:58;8.17;;;5.80;;
3379;SDS011;1703;51.964;7.642;2023-03-01T11:31:30;10.17;;;6.63;;
3379;SDS011;1703;51.964;7.642;2023-03-01T11:34:00;6.20;;;5.63;;
3379;SDS011;1703;51.964;7.642;2023-03-01T11:36:35;10.57;;;7.23;;
3379;SDS011;1703;51.964;7.642;2023-03-01T11:39:12;11.30;;;6.57;;
3379;SDS011;1703;51.964;7.642;2023-03-01T11:41:48;10.60;;;6.97;;
3379;SDS011;1703;51.964;7.642;2023-03-01T11:44:20;8.93;;;6.23;;
3379;SDS011;1703;51.964;7.642;2023-03-01T11:47:00;11.80;;;6.50;;
3379;SDS011;1703;51.964;7.642;2023-03-01T11:49:41;9.87;;;6.77;;
3379;SDS011;1703;51.964;7.642;2023-03-01T11:52:22;10.63;;;6.70;;
3379;SDS011;1703;51.964;7.642;2023-03-01T11:55:01;8.03;;;6.30;;
3379;SDS011;1703;51.964;7.642;2023-03-01T11:57:43;14.17;;;8.00;;
3379;SDS011;1703;51.964;7.642;2023-03-01T12:00:25;13.73;;;8.23;;
3379;SDS011;1703;51.964;7.642;2023-03-01T12:03:16;8.63;;;6.87;;
3379;SDS011;1703;51.964;7.642;2023-03-01T12:08:54;11.63;;;7.40;;
3379;SDS011;1703;51.964;7.642;2023-03-01T12:11:32;12.73;;;7.40;;
3379;SDS011;1703;51.964;7.642;2023-03-01T12:17:00;12.30;;;7.47;;
3379;SDS011;1703;51.964;7.642;2023-03-01T12:19:46;6.60;;;5.60;;
3379;SDS011;1703;51.964;7.642;2023-03-01T12:22:37;8.60;;;5.57;;
3379;SDS011;1703;51.964;7.642;2023-03-01T12:25:20;8.80;;;5.60;;
3379;SDS011;1703;51.964;7.642;2023-03-01T12:31:08;9.10;;;5.37;;
3379;SDS011;1703;51.964;7.642;2023-03-01T12:33:57;10.27;;;5.37;;
3379;SDS011;1703;51.964;7.642;2023-03-01T12:36:42;8.30;;;5.30;;
3379;SDS011;1703;51.964;7.642;2023-03-01T12:42:17;8.33;;;5.37;;
3379;SDS011;1703;51.964;7.642;2023-03-01T12:44:55;9.33;;;6.17;;
3379;SDS011;1703;51.964;7.642;2023-03-01T12:47:36;11.40;;;5.10;;
3379;SDS011;1703;51.964;7.642;2023-03-01T12:50:21;10.23;;;5.10;;
3379;SDS011;1703;51.964;7.642;2023-03-01T12:52:50;17.13;;;4.97;;
3379;SDS011;1703;51.964;7.642;2023-03-01T12:55:23;9.23;;;5.10;;
3379;SDS011;1703;51.964;7.642;2023-03-01T12:57:56;8.53;;;5.67;;
3379;SDS011;1703;51.964;7.642;2023-03-01T13:00:35;6.93;;;5.10;;
3379;SDS011;1703;51.964;7.642;2023-03-01T13:03:10;8.60;;;5.27;;
3379;SDS011;1703;51.964;7.642;2023-03-01T13:05:48;5.83;;;4.43;;
3379;SDS011;1703;51.964;7.642;2023-03-01T13:08:27;7.17;;;4.70;;
3379;SDS011;1703;51.964;7.642;2023-03-01T13:11:02;5.60;;;4.07;;
3379;SDS011;1703;51.964;7.642;2023-03-01T13:13:31;6.50;;;4.77;;
3379;SDS011;1703;51.964;7.642;2023-03-01T13:16:11;7.63;;;4.43;;
3379;SDS011;1703;51.964;7.642;2023-03-01T13:18:48;7.30;;;4.73;;
3379;SDS011;1703;51.964;7.642;2023-03-01T13:21:21;10.23;;;4.23;;
3379;SDS011;1703;51.964;7.642;2023-03-01T13:23:56;7.70;;;5.10;;
3379;SDS011;1703;51.964;7.642;2023-03-01T13:26:24;6.27;;;4.57;;
3379;SDS011;1703;51.964;7.642;2023-03-01T13:28:52;9.30;;;4.87;;
3379;SDS011;1703;51.964;7.642;2023-03-01T13:34:45;10.97;;;5.70;;
3379;SDS011;1703;51.964;7.642;2023-03-01T13:43:28;7.23;;;4.37;;
3379;SDS011;1703;51.964;7.642;2023-03-01T13:46:11;12.90;;;5.63;;
3379;SDS011;1703;51.964;7.642;2023-03-01T13:48:43;6.20;;;4.47;;
3379;SDS011;1703;51.964;7.642;2023-03-01T13:51:13;7.87;;;5.30;;
3379;SDS011;1703;51.964;7.642;2023-03-01T13:53:40;5.20;;;4.70;;
3379;SDS011;1703;51.964;7.642;2023-03-01T13:56:11;7.80;;;4.70;;
3379;SDS011;1703;51.964;7.642;2023-03-01T13:58:46;6.00;;;5.23;;
3379;SDS011;1703;51.964;7.642;2023-03-01T14:01:24;10.00;;;5.00;;
3379;SDS011;1703;51.964;7.642;2023-03-01T14:03:53;5.73;;;4.77;;
3379;SDS011;1703;51.964;7.642;2023-03-01T14:06:21;8.03;;;5.23;;
3379;SDS011;1703;51.964;7.642;2023-03-01T14:08:49;6.50;;;5.73;;
3379;SDS011;1703;51.964;7.642;2023-03-01T14:11:31;4.90;;;4.33;;
3379;SDS011;1703;51.964;7.642;2023-03-01T14:14:36;6.63;;;4.27;;
3379;SDS011;1703;51.964;7.642;2023-03-01T14:17:22;7.73;;;4.77;;
3379;SDS011;1703;51.964;7.642;2023-03-01T14:20:11;8.53;;;5.30;;
3379;SDS011;1703;51.964;7.642;2023-03-01T14:22:42;6.97;;;4.80;;
3379;SDS011;1703;51.964;7.642;2023-03-01T14:25:26;6.23;;;4.90;;
3379;SDS011;1703;51.964;7.642;2023-03-01T14:27:56;6.40;;;4.90;;
3379;SDS011;1703;51.964;7.642;2023-03-01T14:30:27;7.23;;;5.60;;
3379;SDS011;1703;51.964;7.642;2023-03-01T14:32:58;6.87;;;5.70;;
3379;SDS011;1703;51.964;7.642;2023-03-01T14:35:32;9.57;;;5.27;;
3379;SDS011;1703;51.964;7.642;2023-03-01T14:38:01;9.33;;;5.37;;
3379;SDS011;1703;51.964;7.642;2023-03-01T14:40:29;9.07;;;5.77;;
3379;SDS011;1703;51.964;7.642;2023-03-01T14:42:59;5.20;;;4.80;;
3379;SDS011;1703;51.964;7.642;2023-03-01T14:45:29;7.73;;;5.10;;
3379;SDS011;1703;51.964;7.642;2023-03-01T14:47:58;9.10;;;5.80;;
3379;SDS011;1703;51.964;7.642;2023-03-01T14:50:28;7.50;;;5.33;;
3379;SDS011;1703;51.964;7.642;2023-03-01T14:52:58;7.53;;;5.40;;
3379;SDS011;1703;51.964;7.642;2023-03-01T14:55:27;9.47;;;4.37;;
3379;SDS011;1703;51.964;7.642;2023-03-01T14:57:57;6.47;;;4.77;;
3379;SDS011;1703;51.964;7.642;2023-03-01T15:00:25;8.10;;;5.53;;
3379;SDS011;1703;51.964;7.642;2023-03-01T15:02:56;5.60;;;4.60;;
3379;SDS011;1703;51.964;7.642;2023-03-01T15:05:28;5.20;;;4.17;;
3379;SDS011;1703;51.964;7.642;2023-03-01T15:07:56;7.60;;;4.67;;
3379;SDS011;1703;51.964;7.642;2023-03-01T15:10:26;5.70;;;4.50;;
3379;SDS011;1703;51.964;7.642;2023-03-01T15:12:54;8.33;;;5.20;;
3379;SDS011;1703;51.964;7.642;2023-03-01T15:15:31;7.67;;;5.17;;
3379;SDS011;1703;51.964;7.642;2023-03-01T15:18:05;10.73;;;5.40;;
3379;SDS011;1703;51.964;7.642;2023-03-01T15:20:40;5.33;;;4.17;;
3379;SDS011;1703;51.964;7.642;2023-03-01T15:23:12;6.30;;;4.23;;
3379;SDS011;1703;51.964;7.642;2023-03-01T15:25:49;9.07;;;4.83;;
3379;SDS011;1703;51.964;7.642;2023-03-01T15:28:23;7.63;;;4.40;;
3379;SDS011;1703;51.964;7.642;2023-03-01T15:30:52;6.57;;;4.60;;
3379;SDS011;1703;51.964;7.642;2023-03-01T15:33:29;6.27;;;4.87;;
3379;SDS011;1703;51.964;7.642;2023-03-01T15:36:03;9.43;;;5.00;;
3379;SDS011;1703;51.964;7.642;2023-03-01T15:38:57;7.83;;;4.60;;
3379;SDS011;1703;51.964;7.642;2023-03-01T15:41:26;5.57;;;3.97;;
3379;SDS011;1703;51.964;7.642;2023-03-01T15:43:56;7.43;;;4.80;;
3379;SDS011;1703;51.964;7.642;2023-03-01T15:46:27;5.43;;;3.70;;
3379;SDS011;1703;51.964;7.642;2023-03-01T15:48:58;8.50;;;4.33;;
3379;SDS011;1703;51.964;7.642;2023-03-01T15:51:32;6.23;;;3.73;;
3379;SDS011;1703;51.964;7.642;2023-03-01T15:54:01;8.73;;;4.07;;
3379;SDS011;1703;51.964;7.642;2023-03-01T15:56:31;5.93;;;3.90;;
3379;SDS011;1703;51.964;7.642;2023-03-01T15:59:00;7.50;;;4.60;;
3379;SDS011;1703;51.964;7.642;2023-03-01T16:01:28;6.73;;;4.23;;
3379;SDS011;1703;51.964;7.642;2023-03-01T16:03:55;4.27;;;3.60;;
3379;SDS011;1703;51.964;7.642;2023-03-01T16:06:24;17.03;;;6.73;;
3379;SDS011;1703;51.964;7.642;2023-03-01T16:08:51;4.63;;;3.87;;
3379;SDS011;1703;51.964;7.642;2023-03-01T16:11:19;8.00;;;3.70;;
3379;SDS011;1703;51.964;7.642;2023-03-01T16:13:46;4.80;;;3.80;;